sensor_id;sensor_type;location;lat;lon;timestamp;P1;durP1;ratioP1;P2;durP2;ratioP2
22318;SDS011;11327;52.334;9.506;2022-08-30T00:00:29;1.40;;;1.30;;
22318;SDS011;11327;52.334;9.506;2022-08-30T00:04:08;1.77;;;1.30;;
22318;SDS011;11327;52.334;9.506;2022-08-30T00:07:30;1.72;;;1.20;;
22318;SDS011;11327;52.334;9.506;2022-08-30T00:10:51;1.45;;;1.30;;
22318;SDS011;11327;52.334;9.506;2022-08-30T00:14:12;1.65;;;1.20;;
22318;SDS011;11327;52.334;9.506;2022-08-30T00:17:33;1.60;;;1.15;;
22318;SDS011;11327;52.334;9.506;2022-08-30T00:20:54;1.57;;;1.20;;
22318;SDS011;11327;52.334;9.506;2022-08-30T00:24:16;2.05;;;1.40;;
22318;SDS011;11327;52.334;9.506;2022-08-30T00:27:37;1.60;;;1.30;;
22318;SDS011;11327;52.334;9.506;2022-08-30T00:30:59;2.47;;;1.40;;
22318;SDS011;11327;52.334;9.506;2022-08-30T00:34:21;3.12;;;1.55;;
22318;SDS011;11327;52.334;9.506;2022-08-30T00:37:42;1.90;;;1.37;;
22318;SDS011;11327;52.334;9.506;2022-08-30T00:41:03;1.57;;;1.30;;
22318;SDS011;11327;52.334;9.506;2022-08-30T00:44:24;1.65;;;1.15;;
22318;SDS011;11327;52.334;9.506;2022-08-30T00:47:45;2.70;;;1.50;;
22318;SDS011;11327;52.334;9.506;2022-08-30T00:51:07;3.47;;;1.50;;
22318;SDS011;11327;52.334;9.506;2022-08-30T00:54:30;2.52;;;1.70;;
22318;SDS011;11327;52.334;9.506;2022-08-30T00:57:55;1.70;;;1.30;;
22318;SDS011;11327;52.334;9.506;2022-08-30T01:01:17;2.10;;;1.57;;
22318;SDS011;11327;52.334;9.506;2022-08-30T01:04:39;1.77;;;1.42;;
22318;SDS011;11327;52.334;9.506;2022-08-30T01:08:02;2.00;;;1.40;;
22318;SDS011;11327;52.334;9.506;2022-08-30T01:11:24;1.52;;;1.40;;
22318;SDS011;11327;52.334;9.506;2022-08-30T01:14:45;1.85;;;1.55;;
22318;SDS011;11327;52.334;9.506;2022-08-30T01:18:06;2.58;;;1.60;;
22318;SDS011;11327;52.334;9.506;2022-08-30T01:21:40;1.70;;;1.60;;
22318;SDS011;11327;52.334;9.506;2022-08-30T01:25:12;1.55;;;1.30;;
22318;SDS011;11327;52.334;9.506;2022-08-30T01:28:34;1.82;;;1.42;;
22318;SDS011;11327;52.334;9.506;2022-08-30T01:31:55;2.17;;;1.70;;
22318;SDS011;11327;52.334;9.506;2022-08-30T01:35:16;2.75;;;1.30;;
22318;SDS011;11327;52.334;9.506;2022-08-30T01:38:56;1.70;;;1.10;;
22318;SDS011;11327;52.334;9.506;2022-08-30T01:42:08;1.42;;;1.25;;
22318;SDS011;11327;52.334;9.506;2022-08-30T01:45:30;1.65;;;1.32;;
22318;SDS011;11327;52.334;9.506;2022-08-30T01:48:51;1.72;;;1.32;;
22318;SDS011;11327;52.334;9.506;2022-08-30T01:52:14;1.30;;;1.20;;
22318;SDS011;11327;52.334;9.506;2022-08-30T01:55:35;2.33;;;1.20;;
22318;SDS011;11327;52.334;9.506;2022-08-30T01:58:58;1.15;;;1.05;;
22318;SDS011;11327;52.334;9.506;2022-08-30T02:02:20;2.15;;;1.02;;
22318;SDS011;11327;52.334;9.506;2022-08-30T02:05:43;1.32;;;1.22;;
22318;SDS011;11327;52.334;9.506;2022-08-30T02:09:04;1.65;;;1.45;;
22318;SDS011;11327;52.334;9.506;2022-08-30T02:12:26;1.90;;;1.20;;
22318;SDS011;11327;52.334;9.506;2022-08-30T02:15:49;1.10;;;1.00;;
22318;SDS011;11327;52.334;9.506;2022-08-30T02:19:10;1.87;;;1.17;;
22318;SDS011;11327;52.334;9.506;2022-08-30T02:22:31;1.32;;;1.22;;
22318;SDS011;11327;52.334;9.506;2022-08-30T02:25:52;1.32;;;1.20;;
22318;SDS011;11327;52.334;9.506;2022-08-30T02:29:14;1.87;;;1.30;;
22318;SDS011;11327;52.334;9.506;2022-08-30T02:32:35;1.45;;;1.32;;
22318;SDS011;11327;52.334;9.506;2022-08-30T02:35:56;1.50;;;1.40;;
22318;SDS011;11327;52.334;9.506;2022-08-30T02:39:17;2.35;;;1.30;;
22318;SDS011;11327;52.334;9.506;2022-08-30T02:42:38;1.75;;;1.55;;
22318;SDS011;11327;52.334;9.506;2022-08-30T02:46:01;2.33;;;1.40;;
22318;SDS011;11327;52.334;9.506;2022-08-30T02:49:22;2.10;;;1.50;;
22318;SDS011;11327;52.334;9.506;2022-08-30T02:52:43;2.42;;;1.40;;
22318;SDS011;11327;52.334;9.506;2022-08-30T02:56:04;2.00;;;1.80;;
22318;SDS011;11327;52.334;9.506;2022-08-30T02:59:25;2.15;;;1.95;;
22318;SDS011;11327;52.334;9.506;2022-08-30T03:02:46;2.90;;;2.60;;
22318;SDS011;11327;52.334;9.506;2022-08-30T03:06:08;3.50;;;2.75;;
22318;SDS011;11327;52.334;9.506;2022-08-30T03:09:31;3.50;;;3.20;;
22318;SDS011;11327;52.334;9.506;2022-08-30T03:12:53;3.70;;;3.30;;
22318;SDS011;11327;52.334;9.506;2022-08-30T03:16:14;3.37;;;3.08;;
22318;SDS011;11327;52.334;9.506;2022-08-30T03:19:35;4.90;;;4.05;;
22318;SDS011;11327;52.334;9.506;2022-08-30T03:22:57;5.05;;;3.52;;
22318;SDS011;11327;52.334;9.506;2022-08-30T03:26:18;4.05;;;3.60;;
22318;SDS011;11327;52.334;9.506;2022-08-30T03:29:39;3.92;;;3.52;;
22318;SDS011;11327;52.334;9.506;2022-08-30T03:33:00;4.15;;;3.67;;
22318;SDS011;11327;52.334;9.506;2022-08-30T03:36:22;4.08;;;3.52;;
22318;SDS011;11327;52.334;9.506;2022-08-30T03:39:43;4.10;;;3.70;;
22318;SDS011;11327;52.334;9.506;2022-08-30T03:43:04;3.87;;;3.45;;
22318;SDS011;11327;52.334;9.506;2022-08-30T03:46:26;3.70;;;3.40;;
22318;SDS011;11327;52.334;9.506;2022-08-30T03:49:47;5.35;;;3.35;;
22318;SDS011;11327;52.334;9.506;2022-08-30T03:53:08;4.55;;;3.37;;
22318;SDS011;11327;52.334;9.506;2022-08-30T03:56:31;3.80;;;3.17;;
22318;SDS011;11327;52.334;9.506;2022-08-30T03:59:52;5.33;;;3.75;;
22318;SDS011;11327;52.334;9.506;2022-08-30T04:03:13;5.80;;;4.08;;
22318;SDS011;11327;52.334;9.506;2022-08-30T04:06:34;8.55;;;5.12;;
22318;SDS011;11327;52.334;9.506;2022-08-30T04:09:55;8.35;;;5.22;;
22318;SDS011;11327;52.334;9.506;2022-08-30T04:13:16;7.83;;;5.08;;
22318;SDS011;11327;52.334;9.506;2022-08-30T04:16:37;8.63;;;5.67;;
22318;SDS011;11327;52.334;9.506;2022-08-30T04:19:58;14.40;;;6.80;;
22318;SDS011;11327;52.334;9.506;2022-08-30T04:23:19;13.88;;;7.60;;
22318;SDS011;11327;52.334;9.506;2022-08-30T04:26:40;13.30;;;6.92;;
22318;SDS011;11327;52.334;9.506;2022-08-30T04:30:02;17.27;;;8.13;;
22318;SDS011;11327;52.334;9.506;2022-08-30T04:33:23;12.98;;;7.12;;
22318;SDS011;11327;52.334;9.506;2022-08-30T04:36:44;12.85;;;6.90;;
22318;SDS011;11327;52.334;9.506;2022-08-30T04:40:07;16.20;;;8.00;;
22318;SDS011;11327;52.334;9.506;2022-08-30T04:43:29;14.78;;;8.08;;
22318;SDS011;11327;52.334;9.506;2022-08-30T04:46:50;13.32;;;8.08;;
22318;SDS011;11327;52.334;9.506;2022-08-30T04:50:12;13.65;;;7.70;;
22318;SDS011;11327;52.334;9.506;2022-08-30T04:53:35;14.03;;;8.03;;
22318;SDS011;11327;52.334;9.506;2022-08-30T04:56:57;13.68;;;8.13;;
22318;SDS011;11327;52.334;9.506;2022-08-30T05:00:18;12.05;;;6.87;;
22318;SDS011;11327;52.334;9.506;2022-08-30T05:03:40;13.58;;;7.87;;
22318;SDS011;11327;52.334;9.506;2022-08-30T05:07:01;11.63;;;7.25;;
22318;SDS011;11327;52.334;9.506;2022-08-30T05:10:22;14.18;;;7.15;;
22318;SDS011;11327;52.334;9.506;2022-08-30T05:13:43;12.93;;;7.47;;
22318;SDS011;11327;52.334;9.506;2022-08-30T05:17:04;13.13;;;7.42;;
22318;SDS011;11327;52.334;9.506;2022-08-30T05:20:26;11.68;;;6.78;;
22318;SDS011;11327;52.334;9.506;2022-08-30T05:23:47;11.73;;;7.12;;
22318;SDS011;11327;52.334;9.506;2022-08-30T05:27:09;10.43;;;6.65;;
22318;SDS011;11327;52.334;9.506;2022-08-30T05:30:32;9.88;;;6.33;;
22318;SDS011;11327;52.334;9.506;2022-08-30T05:33:54;11.60;;;6.70;;
22318;SDS011;11327;52.334;9.506;2022-08-30T05:37:16;10.23;;;6.90;;
22318;SDS011;11327;52.334;9.506;2022-08-30T05:40:40;9.95;;;6.50;;
22318;SDS011;11327;52.334;9.506;2022-08-30T05:44:03;9.03;;;6.33;;
22318;SDS011;11327;52.334;9.506;2022-08-30T05:47:26;9.85;;;6.50;;
22318;SDS011;11327;52.334;9.506;2022-08-30T05:50:47;9.30;;;6.45;;
22318;SDS011;11327;52.334;9.506;2022-08-30T05:54:08;7.65;;;6.15;;
22318;SDS011;11327;52.334;9.506;2022-08-30T05:57:33;7.80;;;6.30;;
22318;SDS011;11327;52.334;9.506;2022-08-30T06:00:53;7.90;;;6.45;;
22318;SDS011;11327;52.334;9.506;2022-08-30T06:04:14;7.28;;;6.20;;
22318;SDS011;11327;52.334;9.506;2022-08-30T06:07:36;8.25;;;6.65;;
22318;SDS011;11327;52.334;9.506;2022-08-30T06:10:57;7.15;;;5.90;;
22318;SDS011;11327;52.334;9.506;2022-08-30T06:14:18;10.15;;;7.70;;
22318;SDS011;11327;52.334;9.506;2022-08-30T06:17:39;7.72;;;6.92;;
22318;SDS011;11327;52.334;9.506;2022-08-30T06:21:00;7.70;;;5.87;;
22318;SDS011;11327;52.334;9.506;2022-08-30T06:24:22;8.00;;;5.90;;
22318;SDS011;11327;52.334;9.506;2022-08-30T06:27:43;7.85;;;6.60;;
22318;SDS011;11327;52.334;9.506;2022-08-30T06:31:09;7.58;;;6.62;;
22318;SDS011;11327;52.334;9.506;2022-08-30T06:34:28;9.30;;;6.92;;
22318;SDS011;11327;52.334;9.506;2022-08-30T06:37:49;8.75;;;7.28;;
22318;SDS011;11327;52.334;9.506;2022-08-30T06:41:12;8.58;;;6.50;;
22318;SDS011;11327;52.334;9.506;2022-08-30T06:44:38;7.83;;;6.62;;
22318;SDS011;11327;52.334;9.506;2022-08-30T06:47:59;8.33;;;6.37;;
22318;SDS011;11327;52.334;9.506;2022-08-30T06:51:22;7.97;;;6.83;;
22318;SDS011;11327;52.334;9.506;2022-08-30T06:54:45;8.58;;;7.00;;
22318;SDS011;11327;52.334;9.506;2022-08-30T06:58:07;8.53;;;6.95;;
22318;SDS011;11327;52.334;9.506;2022-08-30T07:01:28;6.97;;;6.28;;
22318;SDS011;11327;52.334;9.506;2022-08-30T07:04:49;8.13;;;6.05;;
22318;SDS011;11327;52.334;9.506;2022-08-30T07:08:10;7.87;;;7.03;;
22318;SDS011;11327;52.334;9.506;2022-08-30T07:11:32;6.55;;;5.60;;
22318;SDS011;11327;52.334;9.506;2022-08-30T07:14:56;8.20;;;7.17;;
22318;SDS011;11327;52.334;9.506;2022-08-30T07:18:17;7.17;;;5.90;;
22318;SDS011;11327;52.334;9.506;2022-08-30T07:21:56;7.35;;;6.40;;
22318;SDS011;11327;52.334;9.506;2022-08-30T07:25:17;8.95;;;7.12;;
22318;SDS011;11327;52.334;9.506;2022-08-30T07:28:40;7.87;;;6.67;;
22318;SDS011;11327;52.334;9.506;2022-08-30T07:32:02;7.05;;;5.65;;
22318;SDS011;11327;52.334;9.506;2022-08-30T07:35:24;8.45;;;6.65;;
22318;SDS011;11327;52.334;9.506;2022-08-30T07:38:45;7.05;;;5.95;;
22318;SDS011;11327;52.334;9.506;2022-08-30T07:42:06;6.20;;;5.10;;
22318;SDS011;11327;52.334;9.506;2022-08-30T07:45:27;6.65;;;5.67;;
22318;SDS011;11327;52.334;9.506;2022-08-30T07:48:48;8.90;;;6.03;;
22318;SDS011;11327;52.334;9.506;2022-08-30T07:52:09;7.75;;;5.45;;
22318;SDS011;11327;52.334;9.506;2022-08-30T07:55:30;8.73;;;6.33;;
22318;SDS011;11327;52.334;9.506;2022-08-30T07:58:51;7.67;;;6.08;;
22318;SDS011;11327;52.334;9.506;2022-08-30T08:02:13;8.80;;;6.00;;
22318;SDS011;11327;52.334;9.506;2022-08-30T08:05:42;7.05;;;5.75;;
22318;SDS011;11327;52.334;9.506;2022-08-30T08:09:00;7.20;;;5.53;;
22318;SDS011;11327;52.334;9.506;2022-08-30T08:12:21;8.45;;;5.80;;
22318;SDS011;11327;52.334;9.506;2022-08-30T08:15:42;7.30;;;5.67;;
22318;SDS011;11327;52.334;9.506;2022-08-30T08:19:04;5.72;;;4.33;;
22318;SDS011;11327;52.334;9.506;2022-08-30T08:22:27;7.47;;;6.10;;
22318;SDS011;11327;52.334;9.506;2022-08-30T08:25:48;7.62;;;6.83;;
22318;SDS011;11327;52.334;9.506;2022-08-30T08:29:09;8.10;;;6.03;;
22318;SDS011;11327;52.334;9.506;2022-08-30T08:32:30;6.67;;;5.05;;
22318;SDS011;11327;52.334;9.506;2022-08-30T08:35:51;7.80;;;6.00;;
22318;SDS011;11327;52.334;9.506;2022-08-30T08:39:12;6.60;;;5.15;;
22318;SDS011;11327;52.334;9.506;2022-08-30T08:49:28;5.65;;;4.70;;
22318;SDS011;11327;52.334;9.506;2022-08-30T08:52:51;7.28;;;5.37;;
22318;SDS011;11327;52.334;9.506;2022-08-30T08:56:32;6.20;;;4.95;;
22318;SDS011;11327;52.334;9.506;2022-08-30T08:59:54;6.22;;;4.70;;
22318;SDS011;11327;52.334;9.506;2022-08-30T09:03:15;9.30;;;6.25;;
22318;SDS011;11327;52.334;9.506;2022-08-30T09:06:45;7.37;;;6.08;;
22318;SDS011;11327;52.334;9.506;2022-08-30T09:10:09;7.72;;;5.50;;
22318;SDS011;11327;52.334;9.506;2022-08-30T09:13:31;7.60;;;5.00;;
22318;SDS011;11327;52.334;9.506;2022-08-30T09:23:55;7.92;;;5.55;;
22318;SDS011;11327;52.334;9.506;2022-08-30T09:27:23;9.53;;;6.08;;
22318;SDS011;11327;52.334;9.506;2022-08-30T09:31:07;10.95;;;6.65;;
22318;SDS011;11327;52.334;9.506;2022-08-30T09:34:29;10.38;;;8.43;;
22318;SDS011;11327;52.334;9.506;2022-08-30T09:37:53;12.65;;;9.10;;
22318;SDS011;11327;52.334;9.506;2022-08-30T09:41:27;13.55;;;7.90;;
22318;SDS011;11327;52.334;9.506;2022-08-30T09:44:49;11.93;;;7.40;;
22318;SDS011;11327;52.334;9.506;2022-08-30T09:52:02;10.38;;;7.42;;
22318;SDS011;11327;52.334;9.506;2022-08-30T09:55:46;12.00;;;8.88;;
22318;SDS011;11327;52.334;9.506;2022-08-30T09:59:23;14.33;;;10.35;;
22318;SDS011;11327;52.334;9.506;2022-08-30T10:03:12;12.68;;;9.43;;
22318;SDS011;11327;52.334;9.506;2022-08-30T10:06:54;11.90;;;9.03;;
22318;SDS011;11327;52.334;9.506;2022-08-30T10:10:32;12.95;;;9.05;;
22318;SDS011;11327;52.334;9.506;2022-08-30T10:22:09;13.22;;;10.32;;
22318;SDS011;11327;52.334;9.506;2022-08-30T10:28:34;17.12;;;12.50;;
22318;SDS011;11327;52.334;9.506;2022-08-30T10:32:04;13.08;;;11.00;;
22318;SDS011;11327;52.334;9.506;2022-08-30T10:35:28;12.43;;;10.08;;
22318;SDS011;11327;52.334;9.506;2022-08-30T10:38:51;15.48;;;10.20;;
22318;SDS011;11327;52.334;9.506;2022-08-30T10:45:42;15.25;;;8.88;;
22318;SDS011;11327;52.334;9.506;2022-08-30T10:49:07;10.10;;;6.67;;
22318;SDS011;11327;52.334;9.506;2022-08-30T10:52:38;8.58;;;5.97;;
22318;SDS011;11327;52.334;9.506;2022-08-30T10:56:01;8.98;;;6.08;;
22318;SDS011;11327;52.334;9.506;2022-08-30T10:59:24;9.48;;;5.25;;
22318;SDS011;11327;52.334;9.506;2022-08-30T11:10:42;6.05;;;4.42;;
22318;SDS011;11327;52.334;9.506;2022-08-30T11:14:10;9.55;;;4.78;;
22318;SDS011;11327;52.334;9.506;2022-08-30T11:17:36;7.35;;;5.05;;
22318;SDS011;11327;52.334;9.506;2022-08-30T11:25:45;5.95;;;4.33;;
22318;SDS011;11327;52.334;9.506;2022-08-30T11:35:38;5.80;;;4.40;;
22318;SDS011;11327;52.334;9.506;2022-08-30T11:39:08;5.22;;;4.10;;
22318;SDS011;11327;52.334;9.506;2022-08-30T11:42:35;5.85;;;4.40;;
22318;SDS011;11327;52.334;9.506;2022-08-30T11:49:50;6.53;;;5.92;;
22318;SDS011;11327;52.334;9.506;2022-08-30T12:00:39;7.12;;;5.55;;
22318;SDS011;11327;52.334;9.506;2022-08-30T12:14:51;8.35;;;7.30;;
22318;SDS011;11327;52.334;9.506;2022-08-30T12:18:15;6.75;;;6.05;;
22318;SDS011;11327;52.334;9.506;2022-08-30T12:21:57;5.90;;;5.30;;
22318;SDS011;11327;52.334;9.506;2022-08-30T12:25:18;6.40;;;5.80;;
22318;SDS011;11327;52.334;9.506;2022-08-30T12:28:47;8.28;;;7.47;;
22318;SDS011;11327;52.334;9.506;2022-08-30T12:32:15;7.75;;;5.95;;
22318;SDS011;11327;52.334;9.506;2022-08-30T12:35:41;6.70;;;6.10;;
22318;SDS011;11327;52.334;9.506;2022-08-30T12:39:09;7.60;;;6.90;;
22318;SDS011;11327;52.334;9.506;2022-08-30T12:42:29;7.20;;;6.60;;
22318;SDS011;11327;52.334;9.506;2022-08-30T12:45:52;6.60;;;6.00;;
22318;SDS011;11327;52.334;9.506;2022-08-30T12:49:16;7.08;;;4.50;;
22318;SDS011;11327;52.334;9.506;2022-08-30T12:52:40;4.60;;;4.20;;
22318;SDS011;11327;52.334;9.506;2022-08-30T12:56:05;8.03;;;5.67;;
22318;SDS011;11327;52.334;9.506;2022-08-30T12:59:42;5.65;;;5.15;;
22318;SDS011;11327;52.334;9.506;2022-08-30T13:03:27;4.75;;;3.95;;
22318;SDS011;11327;52.334;9.506;2022-08-30T13:06:51;4.87;;;4.47;;
22318;SDS011;11327;52.334;9.506;2022-08-30T13:10:15;6.22;;;4.22;;
22318;SDS011;11327;52.334;9.506;2022-08-30T13:13:41;4.75;;;3.70;;
22318;SDS011;11327;52.334;9.506;2022-08-30T13:17:09;3.80;;;3.50;;
22318;SDS011;11327;52.334;9.506;2022-08-30T13:20:31;3.67;;;3.27;;
22318;SDS011;11327;52.334;9.506;2022-08-30T13:24:05;3.45;;;3.02;;
22318;SDS011;11327;52.334;9.506;2022-08-30T13:27:26;3.05;;;2.83;;
22318;SDS011;11327;52.334;9.506;2022-08-30T13:30:48;2.92;;;2.72;;
22318;SDS011;11327;52.334;9.506;2022-08-30T13:34:09;3.30;;;2.52;;
22318;SDS011;11327;52.334;9.506;2022-08-30T13:37:30;3.92;;;2.60;;
22318;SDS011;11327;52.334;9.506;2022-08-30T13:40:52;2.47;;;2.20;;
22318;SDS011;11327;52.334;9.506;2022-08-30T13:44:13;3.45;;;2.20;;
22318;SDS011;11327;52.334;9.506;2022-08-30T13:47:34;2.52;;;2.33;;
22318;SDS011;11327;52.334;9.506;2022-08-30T13:50:55;3.12;;;2.30;;
22318;SDS011;11327;52.334;9.506;2022-08-30T13:54:16;9.35;;;2.55;;
22318;SDS011;11327;52.334;9.506;2022-08-30T13:57:38;1.98;;;1.72;;
22318;SDS011;11327;52.334;9.506;2022-08-30T14:00:59;2.40;;;1.90;;
22318;SDS011;11327;52.334;9.506;2022-08-30T14:04:22;1.60;;;1.50;;
22318;SDS011;11327;52.334;9.506;2022-08-30T14:07:43;2.70;;;1.60;;
22318;SDS011;11327;52.334;9.506;2022-08-30T14:11:04;1.82;;;1.60;;
22318;SDS011;11327;52.334;9.506;2022-08-30T14:14:25;1.75;;;1.55;;
22318;SDS011;11327;52.334;9.506;2022-08-30T14:17:46;2.77;;;1.85;;
22318;SDS011;11327;52.334;9.506;2022-08-30T14:21:07;2.90;;;1.80;;
22318;SDS011;11327;52.334;9.506;2022-08-30T14:24:28;1.40;;;1.30;;
22318;SDS011;11327;52.334;9.506;2022-08-30T14:27:50;1.85;;;1.40;;
22318;SDS011;11327;52.334;9.506;2022-08-30T14:31:11;2.77;;;1.50;;
22318;SDS011;11327;52.334;9.506;2022-08-30T14:34:32;2.60;;;1.30;;
22318;SDS011;11327;52.334;9.506;2022-08-30T14:37:53;2.15;;;1.70;;
22318;SDS011;11327;52.334;9.506;2022-08-30T14:41:14;1.85;;;1.40;;
22318;SDS011;11327;52.334;9.506;2022-08-30T14:44:35;1.32;;;1.22;;
22318;SDS011;11327;52.334;9.506;2022-08-30T14:47:57;3.08;;;1.50;;
22318;SDS011;11327;52.334;9.506;2022-08-30T14:51:18;1.72;;;1.15;;
22318;SDS011;11327;52.334;9.506;2022-08-30T14:54:40;1.62;;;1.22;;
22318;SDS011;11327;52.334;9.506;2022-08-30T14:58:01;4.70;;;1.30;;
22318;SDS011;11327;52.334;9.506;2022-08-30T15:01:22;3.52;;;1.20;;
22318;SDS011;11327;52.334;9.506;2022-08-30T15:04:43;2.02;;;1.32;;
22318;SDS011;11327;52.334;9.506;2022-08-30T15:08:04;4.12;;;1.40;;
22318;SDS011;11327;52.334;9.506;2022-08-30T15:11:25;2.37;;;1.10;;
22318;SDS011;11327;52.334;9.506;2022-08-30T15:14:47;1.62;;;1.27;;
22318;SDS011;11327;52.334;9.506;2022-08-30T15:18:08;1.62;;;1.15;;
22318;SDS011;11327;52.334;9.506;2022-08-30T15:21:34;2.50;;;1.30;;
22318;SDS011;11327;52.334;9.506;2022-08-30T15:24:56;3.40;;;1.77;;
22318;SDS011;11327;52.334;9.506;2022-08-30T15:28:19;2.62;;;1.40;;
22318;SDS011;11327;52.334;9.506;2022-08-30T15:31:40;2.83;;;1.20;;
22318;SDS011;11327;52.334;9.506;2022-08-30T15:35:02;3.10;;;1.40;;
22318;SDS011;11327;52.334;9.506;2022-08-30T15:38:24;1.87;;;1.30;;
22318;SDS011;11327;52.334;9.506;2022-08-30T15:41:45;1.52;;;1.30;;
22318;SDS011;11327;52.334;9.506;2022-08-30T15:45:08;2.90;;;1.50;;
22318;SDS011;11327;52.334;9.506;2022-08-30T15:48:29;1.65;;;1.32;;
22318;SDS011;11327;52.334;9.506;2022-08-30T15:51:51;2.00;;;1.30;;
22318;SDS011;11327;52.334;9.506;2022-08-30T15:55:12;2.90;;;1.20;;
22318;SDS011;11327;52.334;9.506;2022-08-30T15:58:33;1.77;;;1.25;;
22318;SDS011;11327;52.334;9.506;2022-08-30T16:02:03;2.17;;;1.40;;
22318;SDS011;11327;52.334;9.506;2022-08-30T16:05:24;1.52;;;1.20;;
22318;SDS011;11327;52.334;9.506;2022-08-30T16:08:45;2.33;;;1.40;;
22318;SDS011;11327;52.334;9.506;2022-08-30T16:12:06;2.35;;;1.27;;
22318;SDS011;11327;52.334;9.506;2022-08-30T16:15:28;1.75;;;1.17;;
22318;SDS011;11327;52.334;9.506;2022-08-30T16:18:49;1.32;;;1.15;;
22318;SDS011;11327;52.334;9.506;2022-08-30T16:22:11;1.65;;;1.15;;
22318;SDS011;11327;52.334;9.506;2022-08-30T16:25:33;3.58;;;1.10;;
22318;SDS011;11327;52.334;9.506;2022-08-30T16:28:54;6.67;;;1.20;;
22318;SDS011;11327;52.334;9.506;2022-08-30T16:32:15;1.42;;;0.60;;
22318;SDS011;11327;52.334;9.506;2022-08-30T16:35:37;2.27;;;0.53;;
22318;SDS011;11327;52.334;9.506;2022-08-30T16:38:58;1.15;;;0.70;;
22318;SDS011;11327;52.334;9.506;2022-08-30T16:42:19;2.20;;;0.62;;
22318;SDS011;11327;52.334;9.506;2022-08-30T16:45:40;2.27;;;0.60;;
22318;SDS011;11327;52.334;9.506;2022-08-30T16:49:02;2.50;;;0.60;;
22318;SDS011;11327;52.334;9.506;2022-08-30T16:52:25;1.70;;;0.53;;
22318;SDS011;11327;52.334;9.506;2022-08-30T16:55:46;1.10;;;0.50;;
22318;SDS011;11327;52.334;9.506;2022-08-30T16:59:07;0.82;;;0.60;;
22318;SDS011;11327;52.334;9.506;2022-08-30T17:02:28;0.68;;;0.50;;
22318;SDS011;11327;52.334;9.506;2022-08-30T17:05:49;2.80;;;0.50;;
22318;SDS011;11327;52.334;9.506;2022-08-30T17:09:10;0.85;;;0.53;;
22318;SDS011;11327;52.334;9.506;2022-08-30T17:12:31;1.47;;;0.80;;
22318;SDS011;11327;52.334;9.506;2022-08-30T17:15:52;1.98;;;0.60;;
22318;SDS011;11327;52.334;9.506;2022-08-30T17:19:13;1.70;;;0.60;;
22318;SDS011;11327;52.334;9.506;2022-08-30T17:22:34;0.98;;;0.50;;
22318;SDS011;11327;52.334;9.506;2022-08-30T17:25:55;1.25;;;0.60;;
22318;SDS011;11327;52.334;9.506;2022-08-30T17:29:16;1.05;;;0.60;;
22318;SDS011;11327;52.334;9.506;2022-08-30T17:32:37;1.67;;;0.70;;
22318;SDS011;11327;52.334;9.506;2022-08-30T17:35:58;1.40;;;0.60;;
22318;SDS011;11327;52.334;9.506;2022-08-30T17:39:20;1.85;;;0.70;;
22318;SDS011;11327;52.334;9.506;2022-08-30T17:42:42;1.40;;;0.65;;
22318;SDS011;11327;52.334;9.506;2022-08-30T17:46:08;1.35;;;0.50;;
22318;SDS011;11327;52.334;9.506;2022-08-30T17:49:32;1.05;;;0.60;;
22318;SDS011;11327;52.334;9.506;2022-08-30T17:52:54;1.00;;;0.70;;
22318;SDS011;11327;52.334;9.506;2022-08-30T17:56:15;0.82;;;0.60;;
22318;SDS011;11327;52.334;9.506;2022-08-30T17:59:37;1.25;;;0.60;;
22318;SDS011;11327;52.334;9.506;2022-08-30T18:02:58;0.70;;;0.50;;
22318;SDS011;11327;52.334;9.506;2022-08-30T18:06:19;1.17;;;0.80;;
22318;SDS011;11327;52.334;9.506;2022-08-30T18:09:41;0.60;;;0.55;;
22318;SDS011;11327;52.334;9.506;2022-08-30T18:13:02;1.57;;;0.70;;
22318;SDS011;11327;52.334;9.506;2022-08-30T18:16:23;1.62;;;0.70;;
22318;SDS011;11327;52.334;9.506;2022-08-30T18:19:44;2.12;;;0.70;;
22318;SDS011;11327;52.334;9.506;2022-08-30T18:23:05;1.70;;;0.82;;
22318;SDS011;11327;52.334;9.506;2022-08-30T18:26:26;1.22;;;0.80;;
22318;SDS011;11327;52.334;9.506;2022-08-30T18:29:47;1.15;;;0.80;;
22318;SDS011;11327;52.334;9.506;2022-08-30T18:33:08;1.45;;;0.80;;
22318;SDS011;11327;52.334;9.506;2022-08-30T18:36:29;1.70;;;0.80;;
22318;SDS011;11327;52.334;9.506;2022-08-30T18:39:50;1.80;;;0.80;;
22318;SDS011;11327;52.334;9.506;2022-08-30T18:43:12;0.90;;;0.50;;
22318;SDS011;11327;52.334;9.506;2022-08-30T18:46:33;1.92;;;0.60;;
22318;SDS011;11327;52.334;9.506;2022-08-30T18:49:54;1.10;;;0.62;;
22318;SDS011;11327;52.334;9.506;2022-08-30T18:53:16;1.35;;;0.60;;
22318;SDS011;11327;52.334;9.506;2022-08-30T18:56:37;1.15;;;0.62;;
22318;SDS011;11327;52.334;9.506;2022-08-30T18:59:58;1.17;;;0.70;;
22318;SDS011;11327;52.334;9.506;2022-08-30T19:03:19;1.95;;;0.80;;
22318;SDS011;11327;52.334;9.506;2022-08-30T19:06:41;1.57;;;0.70;;
22318;SDS011;11327;52.334;9.506;2022-08-30T19:10:03;0.90;;;0.70;;
22318;SDS011;11327;52.334;9.506;2022-08-30T19:13:25;0.80;;;0.60;;
22318;SDS011;11327;52.334;9.506;2022-08-30T19:16:46;1.62;;;0.60;;
22318;SDS011;11327;52.334;9.506;2022-08-30T19:20:07;0.90;;;0.70;;
22318;SDS011;11327;52.334;9.506;2022-08-30T19:23:29;2.05;;;0.70;;
22318;SDS011;11327;52.334;9.506;2022-08-30T19:26:51;1.25;;;0.90;;
22318;SDS011;11327;52.334;9.506;2022-08-30T19:30:13;2.25;;;1.00;;
22318;SDS011;11327;52.334;9.506;2022-08-30T19:33:36;0.95;;;0.75;;
22318;SDS011;11327;52.334;9.506;2022-08-30T19:36:57;1.55;;;1.07;;
22318;SDS011;11327;52.334;9.506;2022-08-30T19:40:18;1.67;;;0.80;;
22318;SDS011;11327;52.334;9.506;2022-08-30T19:43:40;2.35;;;1.32;;
22318;SDS011;11327;52.334;9.506;2022-08-30T19:47:02;1.67;;;1.00;;
22318;SDS011;11327;52.334;9.506;2022-08-30T19:50:24;2.05;;;0.90;;
22318;SDS011;11327;52.334;9.506;2022-08-30T19:53:45;1.75;;;0.90;;
22318;SDS011;11327;52.334;9.506;2022-08-30T19:57:06;1.30;;;0.80;;
22318;SDS011;11327;52.334;9.506;2022-08-30T20:00:29;1.50;;;0.80;;
22318;SDS011;11327;52.334;9.506;2022-08-30T20:03:50;1.30;;;0.93;;
22318;SDS011;11327;52.334;9.506;2022-08-30T20:07:11;0.95;;;0.90;;
22318;SDS011;11327;52.334;9.506;2022-08-30T20:10:33;2.22;;;0.98;;
22318;SDS011;11327;52.334;9.506;2022-08-30T20:13:55;1.00;;;0.72;;
22318;SDS011;11327;52.334;9.506;2022-08-30T20:17:17;2.27;;;1.15;;
22318;SDS011;11327;52.334;9.506;2022-08-30T20:20:38;1.92;;;1.00;;
22318;SDS011;11327;52.334;9.506;2022-08-30T20:23:59;1.92;;;1.00;;
22318;SDS011;11327;52.334;9.506;2022-08-30T20:27:20;1.50;;;0.90;;
22318;SDS011;11327;52.334;9.506;2022-08-30T20:30:42;1.15;;;0.88;;
22318;SDS011;11327;52.334;9.506;2022-08-30T20:34:03;1.92;;;1.00;;
22318;SDS011;11327;52.334;9.506;2022-08-30T20:37:24;1.47;;;0.88;;
22318;SDS011;11327;52.334;9.506;2022-08-30T20:40:46;1.85;;;1.00;;
22318;SDS011;11327;52.334;9.506;2022-08-30T20:44:09;2.85;;;0.90;;
22318;SDS011;11327;52.334;9.506;2022-08-30T20:47:30;1.87;;;0.98;;
22318;SDS011;11327;52.334;9.506;2022-08-30T20:50:53;2.00;;;1.10;;
22318;SDS011;11327;52.334;9.506;2022-08-30T20:54:14;1.22;;;1.10;;
22318;SDS011;11327;52.334;9.506;2022-08-30T20:57:35;1.80;;;1.10;;
22318;SDS011;11327;52.334;9.506;2022-08-30T21:00:56;1.50;;;1.00;;
22318;SDS011;11327;52.334;9.506;2022-08-30T21:04:17;1.52;;;1.10;;
22318;SDS011;11327;52.334;9.506;2022-08-30T21:07:38;2.65;;;1.17;;
22318;SDS011;11327;52.334;9.506;2022-08-30T21:10:59;3.98;;;1.15;;
22318;SDS011;11327;52.334;9.506;2022-08-30T21:14:20;2.17;;;1.30;;
22318;SDS011;11327;52.334;9.506;2022-08-30T21:17:44;2.60;;;1.20;;
22318;SDS011;11327;52.334;9.506;2022-08-30T21:21:08;1.75;;;1.10;;
22318;SDS011;11327;52.334;9.506;2022-08-30T21:24:30;2.67;;;1.10;;
22318;SDS011;11327;52.334;9.506;2022-08-30T21:27:51;3.08;;;1.27;;
22318;SDS011;11327;52.334;9.506;2022-08-30T21:31:14;1.62;;;1.17;;